createdAt,value
2022-08-17T00:02:26.201Z,100787.75
2022-08-17T00:04:55.182Z,100788.72
2022-08-17T00:07:22.405Z,100793.69
2022-08-17T00:09:51.858Z,100785.84
2022-08-17T00:12:43.015Z,100783.25
2022-08-17T00:15:11.400Z,100775.56
2022-08-17T00:17:38.474Z,100780.50
2022-08-17T00:20:06.038Z,100777.34
2022-08-17T00:22:36.370Z,100774.88
2022-08-17T00:25:13.055Z,100776.16
2022-08-17T00:27:40.429Z,100782.66
2022-08-17T00:30:09.954Z,100773.06
2022-08-17T00:33:15.572Z,100773.34
2022-08-17T00:35:34.449Z,100779.00
2022-08-17T00:38:00.990Z,100773.00
2022-08-17T00:40:27.561Z,100770.44
2022-08-17T00:43:20.688Z,100765.31
2022-08-17T00:45:47.950Z,100770.56
2022-08-17T00:48:29.846Z,100774.25
2022-08-17T00:51:34.358Z,100770.81
2022-08-17T00:54:12.731Z,100764.56
2022-08-17T00:56:46.412Z,100774.41
2022-08-17T00:59:17.522Z,100769.09
2022-08-17T01:01:44.254Z,100768.41
2022-08-17T01:04:12.494Z,100780.91
2022-08-17T01:06:41.521Z,100772.22
2022-08-17T01:09:09.374Z,100770.47
2022-08-17T01:11:37.228Z,100783.25
2022-08-17T01:14:03.940Z,100775.56
2022-08-17T01:16:32.270Z,100774.69
2022-08-17T01:19:01.966Z,100782.91
2022-08-17T01:21:50.717Z,100792.13
2022-08-17T01:24:17.536Z,100792.53
2022-08-17T01:26:45.774Z,100786.13
2022-08-17T01:29:13.389Z,100790.53
2022-08-17T01:31:45.695Z,100780.63
2022-08-17T01:34:14.430Z,100781.84
2022-08-17T01:36:44.712Z,100778.53
2022-08-17T01:39:43.561Z,100776.84
2022-08-17T01:42:29.048Z,100773.38
2022-08-17T01:44:58.107Z,100771.94
2022-08-17T01:47:24.868Z,100781.88
2022-08-17T01:49:51.443Z,100778.47
2022-08-17T01:52:18.193Z,100780.16
2022-08-17T01:54:47.386Z,100776.63
2022-08-17T01:57:14.392Z,100775.88
2022-08-17T01:59:41.008Z,100777.47
2022-08-17T02:02:07.692Z,100769.50
2022-08-17T02:04:35.075Z,100776.63
2022-08-17T02:07:01.906Z,100766.78
2022-08-17T02:09:30.122Z,100772.44
2022-08-17T02:11:59.802Z,100775.28
2022-08-17T02:14:46.469Z,100773.69
2022-08-17T02:17:13.014Z,100767.69
2022-08-17T02:19:40.454Z,100774.06
2022-08-17T02:22:07.038Z,100782.16
2022-08-17T02:25:00.251Z,100783.88
2022-08-17T02:27:24.514Z,100784.00
2022-08-17T02:29:51.127Z,100786.81
2022-08-17T02:32:20.899Z,100779.88
2022-08-17T02:34:55.733Z,100789.06
2022-08-17T02:37:22.309Z,100784.25
2022-08-17T02:39:49.008Z,100786.34
2022-08-17T02:42:15.710Z,100794.44
2022-08-17T02:44:42.351Z,100791.47
2022-08-17T02:47:10.548Z,100786.84
2022-08-17T02:49:37.934Z,100781.31
2022-08-17T02:52:07.243Z,100777.75
2022-08-17T02:54:39.207Z,100779.38
2022-08-17T02:57:07.558Z,100787.22
2022-08-17T02:59:34.123Z,100786.13
2022-08-17T03:02:03.376Z,100779.72
2022-08-17T03:04:30.913Z,100785.97
2022-08-17T03:07:01.432Z,100791.50
2022-08-17T03:09:27.966Z,100785.38
2022-08-17T03:11:55.826Z,100785.25
2022-08-17T03:14:26.024Z,100788.56
2022-08-17T03:16:53.802Z,100785.88
2022-08-17T03:19:20.898Z,100779.59
2022-08-17T03:21:47.426Z,100786.13
2022-08-17T03:24:22.342Z,100777.16
2022-08-17T03:26:55.750Z,100775.44
2022-08-17T03:29:22.328Z,100781.66
2022-08-17T03:31:49.727Z,100782.56
2022-08-17T03:34:17.142Z,100785.25
2022-08-17T03:36:44.417Z,100784.97
2022-08-17T03:39:11.154Z,100791.13
2022-08-17T03:41:38.971Z,100795.41
2022-08-17T03:44:05.638Z,100789.88
2022-08-17T03:46:50.497Z,100785.31
2022-08-17T03:49:35.531Z,100783.38
2022-08-17T03:52:20.515Z,100785.22
2022-08-17T03:55:05.754Z,100781.53
2022-08-17T03:57:32.489Z,100789.38
2022-08-17T03:59:59.856Z,100777.59
2022-08-17T04:02:31.859Z,100769.63
2022-08-17T04:04:59.433Z,100774.19
2022-08-17T04:07:28.639Z,100785.69
2022-08-17T04:09:55.438Z,100788.38
2022-08-17T04:12:23.658Z,100785.44
2022-08-17T04:14:52.909Z,100789.59
2022-08-17T04:17:27.688Z,100792.91
2022-08-17T04:19:55.490Z,100793.78
2022-08-17T04:22:32.765Z,100791.94
2022-08-17T04:25:17.078Z,100791.78
2022-08-17T04:27:46.340Z,100802.31
2022-08-17T04:30:13.569Z,100796.94
2022-08-17T04:33:06.345Z,100795.09
2022-08-17T04:35:49.448Z,100791.41
2022-08-17T04:38:21.581Z,100795.69
2022-08-17T04:41:11.679Z,100798.38
2022-08-17T04:43:39.966Z,100805.63
2022-08-17T04:46:12.525Z,100810.91
2022-08-17T04:48:48.667Z,100806.22
2022-08-17T04:51:22.293Z,100808.81
2022-08-17T04:53:54.346Z,100816.78
2022-08-17T04:56:23.470Z,100807.69
2022-08-17T04:58:51.642Z,100810.38
2022-08-17T05:01:23.131Z,100820.22
2022-08-17T05:03:56.196Z,100817.13
2022-08-17T05:06:23.483Z,100817.97
2022-08-17T05:08:50.259Z,100818.56
2022-08-17T05:11:17.250Z,100811.47
2022-08-17T05:13:44.793Z,100808.63
2022-08-17T05:16:11.685Z,100809.38
2022-08-17T05:18:39.150Z,100806.66
2022-08-17T05:21:06.711Z,100813.66
2022-08-17T05:23:43.049Z,100803.81
2022-08-17T05:26:25.778Z,100809.09
2022-08-17T05:28:58.523Z,100813.50
2022-08-17T05:31:26.798Z,100820.75
2022-08-17T05:33:53.638Z,100816.34
2022-08-17T05:36:41.862Z,100814.63
2022-08-17T05:39:07.139Z,100817.47
2022-08-17T05:41:33.678Z,100812.22
2022-08-17T05:44:00.269Z,100810.34
2022-08-17T05:46:39.270Z,100813.78
2022-08-17T05:49:08.174Z,100813.66
2022-08-17T05:51:56.593Z,100813.50
2022-08-17T05:54:51.678Z,100815.84
2022-08-17T05:57:47.618Z,100820.75
2022-08-17T06:00:36.929Z,100815.94
2022-08-17T06:03:11.439Z,100818.13
2022-08-17T06:05:59.132Z,100822.28
2022-08-17T06:08:44.429Z,100829.16
2022-08-17T06:11:22.794Z,100825.91
2022-08-17T06:14:09.317Z,100830.53
2022-08-17T06:16:42.791Z,100836.53
2022-08-17T06:19:24.422Z,100834.56
2022-08-17T06:21:54.531Z,100836.75
2022-08-17T06:24:24.292Z,100839.88
2022-08-17T06:26:52.498Z,100841.34
2022-08-17T06:29:41.927Z,100834.28
2022-08-17T06:32:12.670Z,100834.88
2022-08-17T06:34:40.692Z,100841.97
2022-08-17T06:37:10.283Z,100849.69
2022-08-17T06:40:07.454Z,100849.06
2022-08-17T06:43:12.690Z,100844.69
2022-08-17T06:45:49.330Z,100846.59
2022-08-17T06:48:26.930Z,100847.03
2022-08-17T06:51:00.075Z,100841.50
2022-08-17T06:53:43.907Z,100838.50
2022-08-17T06:56:13.994Z,100842.78
2022-08-17T06:58:43.382Z,100844.50
2022-08-17T07:01:14.989Z,100852.47
2022-08-17T07:03:54.682Z,100853.63
2022-08-17T07:06:24.550Z,100849.53
2022-08-17T07:08:57.747Z,100849.69
2022-08-17T07:11:45.296Z,100845.00
2022-08-17T07:14:35.301Z,100842.03
2022-08-17T07:17:12.076Z,100841.50
2022-08-17T07:19:41.293Z,100846.47
2022-08-17T07:22:21.921Z,100848.91
2022-08-17T07:24:57.313Z,100857.75
2022-08-17T07:27:33.008Z,100854.66
2022-08-17T07:30:19.425Z,100855.53
2022-08-17T07:32:57.855Z,100858.38
2022-08-17T07:35:41.475Z,100852.69
2022-08-17T07:38:27.711Z,100854.25
2022-08-17T07:40:57.658Z,100854.97
2022-08-17T07:43:31.674Z,100862.69
2022-08-17T07:46:29.918Z,100860.41
2022-08-17T07:49:03.558Z,100863.84
2022-08-17T07:51:32.044Z,100868.66
2022-08-17T07:54:13.967Z,100871.84
2022-08-17T07:57:10.449Z,100871.69
2022-08-17T07:59:41.263Z,100865.34
2022-08-17T08:02:30.120Z,100843.72
2022-08-17T08:05:06.576Z,100858.53
2022-08-17T08:08:00.707Z,100865.22
2022-08-17T08:10:38.084Z,100858.09
2022-08-17T08:13:12.266Z,100862.91
2022-08-17T08:15:54.764Z,100851.22
2022-08-17T08:18:55.813Z,100845.16
2022-08-17T08:21:59.059Z,100848.81
2022-08-17T08:25:03.124Z,100841.66
2022-08-17T08:27:29.809Z,100845.16
2022-08-17T08:30:08.787Z,100846.84
2022-08-17T08:32:38.319Z,100849.50
2022-08-17T08:35:13.445Z,100857.09
2022-08-17T08:37:58.020Z,100853.41
2022-08-17T08:40:42.978Z,100865.50
2022-08-17T08:43:12.644Z,100855.53
2022-08-17T08:45:48.001Z,100867.25
2022-08-17T08:48:55.666Z,100862.84
2022-08-17T08:51:42.590Z,100860.50
2022-08-17T08:54:26.675Z,100862.31
2022-08-17T08:59:58.222Z,100857.13
2022-08-17T09:02:46.782Z,100864.56
2022-08-17T09:05:26.141Z,100867.69
2022-08-17T09:08:05.523Z,100865.94
2022-08-17T09:10:45.249Z,100862.31
2022-08-17T09:13:14.860Z,100873.66
2022-08-17T09:15:46.216Z,100871.56
2022-08-17T09:19:00.417Z,100864.16
2022-08-17T09:21:18.221Z,100868.84
2022-08-17T09:24:12.871Z,100871.09
2022-08-17T09:26:59.557Z,100875.50
2022-08-17T09:29:35.183Z,100876.63
2022-08-17T09:32:15.006Z,100878.72
2022-08-17T09:34:53.605Z,100886.03
2022-08-17T09:37:30.719Z,100884.53
2022-08-17T09:39:57.260Z,100889.56
2022-08-17T09:42:29.996Z,100882.31
2022-08-17T09:45:09.767Z,100888.69
2022-08-17T09:47:45.546Z,100897.94
2022-08-17T09:50:17.285Z,100895.19
2022-08-17T09:52:43.897Z,100902.81
2022-08-17T09:55:10.517Z,100894.19
2022-08-17T09:57:42.974Z,100891.06
2022-08-17T10:00:19.066Z,100889.06
2022-08-17T10:02:57.931Z,100882.81
2022-08-17T10:05:56.819Z,100885.69
2022-08-17T10:08:43.826Z,100898.59
2022-08-17T10:11:51.745Z,100883.91
2022-08-17T10:14:37.824Z,100881.22
2022-08-17T10:17:24.046Z,100888.09
2022-08-17T10:20:02.343Z,100886.22
2022-08-17T10:23:13.557Z,100884.50
2022-08-17T10:26:14.380Z,100888.22
2022-08-17T10:29:28.992Z,100886.69
2022-08-17T10:32:04.103Z,100881.91
2022-08-17T10:34:49.338Z,100885.69
2022-08-17T10:37:34.385Z,100894.19
2022-08-17T10:40:03.774Z,100899.63
2022-08-17T10:42:56.674Z,100905.78
2022-08-17T10:45:29.513Z,100894.84
2022-08-17T10:48:06.369Z,100895.94
2022-08-17T10:50:48.097Z,100882.81
2022-08-17T10:53:32.771Z,100890.81
2022-08-17T10:56:14.333Z,100885.53
2022-08-17T10:58:59.035Z,100888.09
2022-08-17T11:01:43.862Z,100889.78
2022-08-17T11:04:21.224Z,100894.50
2022-08-17T11:07:23.046Z,100898.22
2022-08-17T11:09:52.439Z,100893.03
2022-08-17T11:12:47.697Z,100888.59
2022-08-17T11:15:23.232Z,100891.31
2022-08-17T11:18:01.558Z,100894.34
2022-08-17T11:20:57.704Z,100889.50
2022-08-17T11:23:45.484Z,100900.44
2022-08-17T11:26:26.880Z,100899.47
2022-08-17T11:29:01.435Z,100887.69
2022-08-17T11:31:38.607Z,100887.34
2022-08-17T11:34:21.630Z,100883.75
2022-08-17T11:37:17.898Z,100891.16
2022-08-17T11:39:55.245Z,100881.75
2022-08-17T11:43:00.459Z,100882.13
2022-08-17T11:45:31.675Z,100888.03
2022-08-17T11:48:43.612Z,100877.56
2022-08-17T11:51:33.421Z,100871.53
2022-08-17T11:54:34.878Z,100862.31
2022-08-17T11:57:26.333Z,100872.03
2022-08-17T12:00:06.762Z,100865.66
2022-08-17T12:02:38.826Z,100871.19
2022-08-17T12:05:14.586Z,100863.94
2022-08-17T12:07:43.119Z,100871.69
2022-08-17T12:10:12.392Z,100873.72
2022-08-17T12:12:44.097Z,100876.75
2022-08-17T12:15:21.820Z,100872.78
2022-08-17T12:17:54.556Z,100872.41
2022-08-17T12:20:33.833Z,100861.34
2022-08-17T12:23:40.978Z,100843.84
2022-08-17T12:26:22.708Z,100847.81
2022-08-17T12:28:57.386Z,100845.19
2022-08-17T12:31:48.737Z,100843.59
2022-08-17T12:34:40.606Z,100826.44
2022-08-17T12:37:15.332Z,100831.97
2022-08-17T12:39:52.542Z,100840.28
2022-08-17T12:42:34.895Z,100834.88
2022-08-17T12:45:01.650Z,100831.47
2022-08-17T12:47:32.232Z,100832.44
2022-08-17T12:50:28.795Z,100829.94
2022-08-17T12:53:02.333Z,100838.53
2022-08-17T12:55:38.016Z,100835.34
2022-08-17T12:58:13.974Z,100842.97
2022-08-17T13:00:48.762Z,100838.06
2022-08-17T13:03:22.209Z,100844.28
2022-08-17T13:05:57.556Z,100847.88
2022-08-17T13:08:31.635Z,100841.34
2022-08-17T13:11:02.058Z,100844.19
2022-08-17T13:13:35.354Z,100846.75
2022-08-17T13:16:12.756Z,100842.31
2022-08-17T13:18:44.202Z,100843.34
2022-08-17T13:21:19.126Z,100851.94
2022-08-17T13:23:56.504Z,100844.09
2022-08-17T13:26:29.657Z,100840.03
2022-08-17T13:28:56.706Z,100842.41
2022-08-17T13:31:37.476Z,100831.16
2022-08-17T13:34:33.509Z,100847.31
2022-08-17T13:37:26.887Z,100838.81
2022-08-17T13:39:56.234Z,100845.78
2022-08-17T13:42:48.121Z,100850.72
2022-08-17T13:45:36.079Z,100866.47
2022-08-17T13:48:34.045Z,100874.09
2022-08-17T13:51:00.541Z,100872.16
2022-08-17T13:53:35.984Z,100870.91
2022-08-17T13:56:37.204Z,100871.66
2022-08-17T13:59:01.568Z,100869.81
2022-08-17T14:01:42.485Z,100869.03
2022-08-17T14:04:15.355Z,100861.94
2022-08-17T14:06:53.346Z,100860.25
2022-08-17T14:09:27.305Z,100868.53
2022-08-17T14:11:57.023Z,100868.38
2022-08-17T14:14:27.527Z,100877.84
2022-08-17T14:16:54.425Z,100872.25
2022-08-17T14:19:24.502Z,100883.06
2022-08-17T14:21:52.409Z,100869.59
2022-08-17T14:24:24.178Z,100867.06
2022-08-17T14:26:55.181Z,100862.97
2022-08-17T14:29:23.427Z,100860.94
2022-08-17T14:31:53.243Z,100861.25
2022-08-17T14:34:21.383Z,100866.22
2022-08-17T14:36:48.580Z,100865.88
2022-08-17T14:39:16.769Z,100863.66
2022-08-17T14:41:43.713Z,100868.63
2022-08-17T14:44:13.431Z,100872.53
2022-08-17T14:46:42.179Z,100865.00
2022-08-17T14:49:12.348Z,100858.66
2022-08-17T14:51:43.733Z,100859.91
2022-08-17T14:54:33.353Z,100864.88
2022-08-17T14:57:23.103Z,100881.16
2022-08-17T14:59:55.260Z,100891.31
2022-08-17T15:02:29.807Z,100882.09
2022-08-17T15:05:05.109Z,100882.84
2022-08-17T15:07:31.862Z,100881.34
2022-08-17T15:10:01.625Z,100875.44
2022-08-17T15:12:32.690Z,100874.78
2022-08-17T15:15:01.218Z,100876.13
2022-08-17T15:17:44.375Z,100878.88
2022-08-17T15:20:18.715Z,100881.59
2022-08-17T15:22:49.383Z,100891.00
2022-08-17T15:25:16.205Z,100892.19
2022-08-17T15:27:42.806Z,100889.13
2022-08-17T15:30:10.558Z,100884.00
2022-08-17T15:32:40.646Z,100886.38
2022-08-17T15:35:11.902Z,100901.25
2022-08-17T15:37:40.279Z,100889.13
2022-08-17T15:40:08.831Z,100889.75
2022-08-17T15:42:35.734Z,100892.31
2022-08-17T15:45:09.703Z,100891.81
2022-08-17T15:47:37.161Z,100896.91
2022-08-17T15:50:06.400Z,100899.69
2022-08-17T15:52:38.143Z,100898.34
2022-08-17T15:55:06.258Z,100902.06
2022-08-17T15:57:33.833Z,100907.19
2022-08-17T16:00:00.469Z,100910.94
2022-08-17T16:03:45.219Z,100917.78
2022-08-17T16:05:24.015Z,100929.38
2022-08-17T16:07:52.725Z,100929.38
2022-08-17T16:10:19.753Z,100931.44
2022-08-17T16:12:47.870Z,100926.97
2022-08-17T16:15:14.838Z,100928.28
2022-08-17T16:17:44.616Z,100928.44
2022-08-17T16:20:20.638Z,100932.19
2022-08-17T16:22:50.082Z,100940.50
2022-08-17T16:25:38.265Z,100944.06
2022-08-17T16:28:10.591Z,100945.91
2022-08-17T16:30:38.283Z,100945.69
2022-08-17T16:33:05.973Z,100943.63
2022-08-17T16:35:33.713Z,100943.78
2022-08-17T16:38:00.369Z,100951.94
2022-08-17T16:40:29.202Z,100951.25
2022-08-17T16:42:57.954Z,100954.44
2022-08-17T16:45:36.983Z,100954.47
2022-08-17T16:48:04.465Z,100957.38
2022-08-17T16:50:32.291Z,100958.97
2022-08-17T16:53:07.741Z,100954.31
2022-08-17T16:55:37.980Z,100960.22
2022-08-17T16:58:06.370Z,100963.19
2022-08-17T17:00:33.829Z,100974.38
2022-08-17T17:03:19.490Z,100970.81
2022-08-17T17:06:07.341Z,100970.28
2022-08-17T17:08:58.757Z,100971.34
2022-08-17T17:11:33.744Z,100967.00
2022-08-17T17:14:04.234Z,100969.34
2022-08-17T17:16:57.142Z,100972.38
2022-08-17T17:19:45.734Z,100972.06
2022-08-17T17:22:19.146Z,100978.34
2022-08-17T17:25:10.425Z,100974.25
2022-08-17T17:28:01.322Z,100974.38
2022-08-17T17:30:43.078Z,100981.00
2022-08-17T17:33:32.831Z,100982.50
2022-08-17T17:36:07.251Z,100984.50
2022-08-17T17:38:49.975Z,100990.25
2022-08-17T17:41:26.462Z,100995.69
2022-08-17T17:44:02.893Z,100992.59
2022-08-17T17:46:40.422Z,100997.22
2022-08-17T17:49:08.362Z,100993.69
2022-08-17T17:52:07.850Z,101004.47
2022-08-17T17:54:44.479Z,100998.94
2022-08-17T17:57:49.603Z,101000.66
2022-08-17T18:00:45.805Z,101005.41
2022-08-17T18:03:43.994Z,101001.41
2022-08-17T18:06:45.479Z,100997.69
2022-08-17T18:09:12.498Z,101015.44
2022-08-17T18:12:19.777Z,101001.13
2022-08-17T18:15:21.523Z,101009.41
2022-08-17T18:18:31.796Z,101006.31
2022-08-17T18:21:05.950Z,101011.66
2022-08-17T18:23:33.401Z,101014.41
2022-08-17T18:26:01.942Z,101013.84
2022-08-17T18:28:39.769Z,101024.00
2022-08-17T18:31:11.387Z,101019.41
2022-08-17T18:33:41.341Z,101027.75
2022-08-17T18:36:09.217Z,101023.94
2022-08-17T18:38:38.918Z,101024.50
2022-08-17T18:41:27.164Z,101034.81
2022-08-17T18:44:04.464Z,101029.16
2022-08-17T18:46:37.659Z,101045.41
2022-08-17T18:49:24.146Z,101046.72
2022-08-17T18:52:09.901Z,101055.41
2022-08-17T18:54:37.389Z,101064.69
2022-08-17T18:57:05.596Z,101066.84
2022-08-17T18:59:32.071Z,101070.41
2022-08-17T19:02:38.624Z,101076.28
2022-08-17T19:05:11.756Z,101074.53
2022-08-17T19:07:42.113Z,101073.69
2022-08-17T19:10:46.183Z,101072.28
2022-08-17T19:13:24.518Z,101074.84
2022-08-17T19:16:12.095Z,101092.41
2022-08-17T19:18:44.607Z,101087.63
2022-08-17T19:21:25.596Z,101081.84
2022-08-17T19:24:01.410Z,101084.94
2022-08-17T19:26:54.896Z,101086.63
2022-08-17T19:29:32.174Z,101087.03
2022-08-17T19:32:01.430Z,101089.75
2022-08-17T19:34:34.128Z,101079.34
2022-08-17T19:37:12.244Z,101077.69
2022-08-17T19:40:41.680Z,101084.13
2022-08-17T19:43:06.790Z,101087.28
2022-08-17T19:45:33.431Z,101079.88
2022-08-17T19:48:11.686Z,101086.16
2022-08-17T19:51:03.871Z,101073.72
2022-08-17T19:54:04.889Z,101084.84
2022-08-17T19:56:57.060Z,101085.13
2022-08-17T19:59:36.138Z,101096.97
2022-08-17T20:02:40.993Z,101101.50
2022-08-17T20:05:23.958Z,101104.09
2022-08-17T20:08:11.821Z,101113.22
2022-08-17T20:10:59.591Z,101109.78
2022-08-17T20:13:49.922Z,101114.19
2022-08-17T20:16:19.961Z,101116.91
2022-08-17T20:19:07.542Z,101106.34
2022-08-17T20:21:34.073Z,101122.75
2022-08-17T20:24:28.634Z,101117.75
2022-08-17T20:27:12.845Z,101122.72
2022-08-17T20:29:59.055Z,101129.13
2022-08-17T20:32:33.005Z,101128.28
2022-08-17T20:35:20.101Z,101131.09
2022-08-17T20:37:58.821Z,101134.56
2022-08-17T20:40:27.598Z,101128.41
2022-08-17T20:42:54.821Z,101128.66
2022-08-17T20:45:21.327Z,101134.34
2022-08-17T20:48:18.465Z,101129.19
2022-08-17T20:50:45.861Z,101132.22
2022-08-17T20:53:32.838Z,101127.06
2022-08-17T20:55:59.953Z,101140.00
2022-08-17T20:58:30.982Z,101145.81
2022-08-17T21:00:58.862Z,101145.22
2022-08-17T21:03:47.934Z,101147.34
2022-08-17T21:06:18.237Z,101142.34
2022-08-17T21:08:57.684Z,101142.44
2022-08-17T21:11:59.962Z,101153.56
2022-08-17T21:14:36.529Z,101151.34
2022-08-17T21:17:33.279Z,101149.16
2022-08-17T21:20:11.014Z,101157.81
2022-08-17T21:23:03.096Z,101149.94
2022-08-17T21:25:41.823Z,101158.31
2022-08-17T21:28:14.629Z,101160.31
2022-08-17T21:30:41.087Z,101160.63
2022-08-17T21:33:24.993Z,101157.94
2022-08-17T21:36:16.049Z,101166.88
2022-08-17T21:38:57.766Z,101159.00
2022-08-17T21:41:45.518Z,101171.66
2022-08-17T21:44:19.360Z,101166.25
2022-08-17T21:47:13.005Z,101168.56
2022-08-17T21:49:39.846Z,101175.44
2022-08-17T21:52:15.394Z,101172.63
2022-08-17T21:54:49.234Z,101162.91
2022-08-17T21:57:21.827Z,101168.81
2022-08-17T21:59:54.987Z,101168.38
2022-08-17T22:02:25.483Z,101167.88
2022-08-17T22:05:15.331Z,101174.00
2022-08-17T22:07:51.051Z,101167.75
2022-08-17T22:10:30.473Z,101172.06
2022-08-17T22:13:17.683Z,101185.13
2022-08-17T22:15:48.032Z,101185.59
2022-08-17T22:18:26.888Z,101173.31
2022-08-17T22:20:56.626Z,101172.09
2022-08-17T22:23:46.314Z,101177.38
2022-08-17T22:26:16.958Z,101182.16
2022-08-17T22:28:49.250Z,101192.97
2022-08-17T22:31:21.610Z,101189.06
2022-08-17T22:34:07.634Z,101191.63
2022-08-17T22:36:38.788Z,101202.34
2022-08-17T22:39:10.929Z,101208.69
2022-08-17T22:41:41.188Z,101214.50
2022-08-17T22:44:14.066Z,101210.19
2022-08-17T22:47:12.006Z,101202.06
2022-08-17T22:50:00.231Z,101211.78
2022-08-17T22:52:36.139Z,101212.78
2022-08-17T22:55:32.270Z,101207.72
2022-08-17T22:58:20.257Z,101216.31
2022-08-17T23:00:50.406Z,101220.25
2022-08-17T23:03:28.073Z,101210.66
2022-08-17T23:06:09.631Z,101210.91
2022-08-17T23:08:54.759Z,101212.91
2022-08-17T23:11:36.533Z,101217.53
2022-08-17T23:14:14.531Z,101216.19
2022-08-17T23:16:44.983Z,101219.25
2022-08-17T23:19:13.625Z,101226.31
2022-08-17T23:21:40.464Z,101234.81
2022-08-17T23:24:08.934Z,101229.63
2022-08-17T23:26:39.330Z,101233.28
2022-08-17T23:29:06.753Z,101235.28
2022-08-17T23:31:34.809Z,101231.09
2022-08-17T23:34:03.385Z,101230.47
2022-08-17T23:36:31.634Z,101229.56
2022-08-17T23:38:58.534Z,101224.09
2022-08-17T23:41:35.246Z,101229.25
2022-08-17T23:44:02.971Z,101233.91
2022-08-17T23:46:29.512Z,101233.91
2022-08-17T23:48:56.198Z,101228.72
2022-08-17T23:51:34.680Z,101229.94
2022-08-17T23:54:11.686Z,101225.88
2022-08-17T23:56:46.591Z,101226.81
2022-08-17T23:59:15.227Z,101229.38
